Aeroporto :
LOGIN :

Iscrizione | Disclaimer

   EN    FR    IT 

 










Sommario :    VFR   VFR Marginale   IFR   IFR Intensivo   IFR Molto Intensivo
Visibilità : 
Base nubi : 
>= 8 km
>= 3000ft
5 / 8 km
1000 / 3000 ft
1500m / 5 km
500 / 1000 ft
800 / 1500m
200 / 500 ft
< 800m
< 200 ft
Simboli :   Temporali  Nebbia  Neve Forte  Precipitazioni Forti  Vento > 20 kt
SIGMETs :   Varie  Temporali  Ghiacco  Turbolenza  Onda orograficha  Ceneri Vulcaniche







- Altitudine del aeroporto : 779 ft
- Codice IATA : CMF
- Carte del aeroporto


LFLB - Chambery / Aix-Les-Bains

ULTIMO METAR :
  • 230930Z AUTO 02006KT 340V050 CAVOK 26/15 Q1016 NOSIG

METARs OBSOLETI :
  • 230900Z AUTO 03006KT 360V060 CAVOK 25/16 Q1016 NOSIG
  • 230830Z AUTO 02007KT CAVOK 24/16 Q1016 NOSIG
  • 230800Z AUTO 02008KT 350V050 CAVOK 24/15 Q1016 NOSIG
  • 230730Z AUTO 03009KT CAVOK 23/15 Q1016 NOSIG
  • 230700Z AUTO 03007KT 360V070 CAVOK 23/15 Q1016 NOSIG

TAF TAF LFLB
Valido dal 23 a 06 ore il 24 a 06 ore UTC


230500Z 2306/2406 35003KT CAVOK
BECMG 2308/2310 35013KT
BECMG 2400/2402 VRB02KT
Nessun NOTAM noto per questo aeroporto.



MetMap, La meteo Aeronautica in un colpo d'occhio ! - Copyright ORBIFLY Dicembre 2007 - Disclaimer

ORBIFLY MET'MAP TEAM :

Programmazione e sviluppo : Alexandra Zaïnal
Concezione e sviluppo : Baudouin d'Aumeries
Co-Programmazione e sviluppo : Marc-Olivier Méhu
Supporto tecnico e logistico : Manuel Goepfert
Aiuto per la traduzione : Arnaldo La Scala

Contatto : metmap@orbifly.com




FONTI E CREDITI :

   NOAA